createdAt,value
2019-04-07T00:00:22.193Z,99.99
2019-04-07T00:01:21.695Z,99.99
2019-04-07T00:02:22.377Z,99.99
2019-04-07T00:03:21.674Z,99.99
2019-04-07T00:04:21.664Z,99.99
2019-04-07T00:05:21.788Z,99.99
2019-04-07T00:06:21.644Z,99.99
2019-04-07T00:07:21.635Z,99.99
2019-04-07T00:08:21.717Z,99.99
2019-04-07T00:09:22.260Z,99.99
2019-04-07T00:10:21.618Z,99.99
2019-04-07T00:11:21.593Z,99.99
2019-04-07T00:12:21.583Z,99.99
2019-04-07T00:13:21.573Z,99.99
2019-04-07T00:14:21.563Z,99.99
2019-04-07T00:15:21.974Z,99.99
2019-04-07T00:16:21.587Z,99.99
2019-04-07T00:17:21.533Z,99.99
2019-04-07T00:18:21.757Z,99.99
2019-04-07T00:19:21.940Z,99.99
2019-04-07T00:20:22.052Z,99.99
2019-04-07T00:21:22.031Z,99.99
2019-04-07T00:22:21.482Z,99.99
2019-04-07T00:23:21.471Z,99.99
2019-04-07T00:24:21.882Z,99.99
2019-04-07T00:25:21.452Z,99.99
2019-04-07T00:26:21.590Z,99.99
2019-04-07T00:27:21.431Z,99.99
2019-04-07T00:28:21.470Z,99.99
2019-04-07T00:29:21.568Z,99.99
2019-04-07T00:30:21.400Z,99.99
2019-04-07T00:31:21.629Z,99.99
2019-04-07T00:32:21.380Z,99.99
2019-04-07T00:33:21.975Z,99.99
2019-04-07T00:34:22.092Z,99.99
2019-04-07T00:35:28.114Z,99.99
2019-04-07T00:36:21.918Z,99.99
2019-04-07T00:37:21.870Z,99.99
2019-04-07T00:38:21.320Z,99.99
2019-04-07T00:39:21.309Z,99.99
2019-04-07T00:40:22.294Z,99.99
2019-04-07T00:41:21.288Z,99.99
2019-04-07T00:42:21.279Z,99.99
2019-04-07T00:43:21.268Z,99.99
2019-04-07T00:44:21.267Z,99.99
2019-04-07T00:45:21.551Z,99.99
2019-04-07T00:46:21.801Z,99.99
2019-04-07T00:47:21.879Z,99.99
2019-04-07T00:48:21.224Z,99.99
2019-04-07T00:49:21.207Z,99.99
2019-04-07T00:50:21.967Z,99.99
2019-04-07T00:51:21.200Z,99.99
2019-04-07T00:52:21.502Z,99.99
2019-04-07T00:53:21.169Z,99.99
2019-04-07T00:54:21.491Z,99.99
2019-04-07T00:55:21.144Z,99.99
2019-04-07T00:56:21.134Z,99.99
2019-04-07T00:57:21.128Z,99.99
2019-04-07T00:58:21.456Z,99.99
2019-04-07T00:59:21.102Z,99.99
2019-04-07T01:00:21.848Z,99.99
2019-04-07T01:01:21.700Z,99.99
2019-04-07T01:02:21.235Z,99.99
2019-04-07T01:03:21.095Z,99.99
2019-04-07T01:04:21.142Z,99.99
2019-04-07T01:05:33.711Z,99.99
2019-04-07T01:06:21.030Z,99.99
2019-04-07T01:07:21.022Z,99.99
2019-04-07T01:08:21.541Z,99.99
2019-04-07T01:09:20.998Z,99.99
2019-04-07T01:10:21.606Z,99.99
2019-04-07T01:11:21.590Z,99.99
2019-04-07T01:12:21.391Z,99.99
2019-04-07T01:13:20.955Z,99.99
2019-04-07T01:14:21.420Z,99.99
2019-04-07T01:15:20.936Z,99.99
2019-04-07T01:16:20.924Z,99.99
2019-04-07T01:17:21.563Z,99.99
2019-04-07T01:18:20.904Z,99.99
2019-04-07T01:19:21.136Z,99.99
2019-04-07T01:20:20.883Z,99.99
2019-04-07T01:21:20.873Z,99.99
2019-04-07T01:22:20.868Z,99.99
2019-04-07T01:23:20.968Z,99.99
2019-04-07T01:24:21.044Z,99.99
2019-04-07T01:25:21.445Z,99.99
2019-04-07T01:26:20.821Z,99.99
2019-04-07T01:27:20.864Z,99.99
2019-04-07T01:28:20.888Z,99.99
2019-04-07T01:29:20.986Z,99.99
2019-04-07T01:30:21.369Z,99.99
2019-04-07T01:31:20.932Z,99.99
2019-04-07T01:32:21.279Z,99.99
2019-04-07T01:33:20.779Z,99.99
2019-04-07T01:34:20.749Z,99.99
2019-04-07T01:35:21.331Z,99.99
2019-04-07T01:36:20.715Z,99.99
2019-04-07T01:37:20.967Z,99.99
2019-04-07T01:38:21.235Z,99.99
2019-04-07T01:39:20.687Z,99.99
2019-04-07T01:40:21.053Z,99.99
2019-04-07T01:41:20.663Z,99.99
2019-04-07T01:42:21.319Z,99.99
2019-04-07T01:43:20.643Z,99.99
2019-04-07T01:44:20.632Z,99.99
2019-04-07T01:45:20.661Z,99.99
2019-04-07T01:46:20.679Z,99.99
2019-04-07T01:47:21.045Z,99.99
2019-04-07T01:48:20.589Z,99.99
2019-04-07T01:49:20.663Z,99.99
2019-04-07T01:50:21.102Z,99.99
2019-04-07T01:51:21.119Z,99.99
2019-04-07T01:52:21.163Z,99.99
2019-04-07T01:53:21.255Z,99.99
2019-04-07T01:54:20.778Z,99.99
2019-04-07T01:55:20.515Z,99.99
2019-04-07T01:56:20.794Z,99.99
2019-04-07T01:57:20.956Z,99.99
2019-04-07T01:58:20.483Z,99.99
2019-04-07T01:59:20.918Z,99.99
2019-04-07T02:00:20.468Z,99.99
2019-04-07T02:01:20.866Z,99.99
2019-04-07T02:02:20.452Z,99.99
2019-04-07T02:03:20.436Z,99.99
2019-04-07T02:04:20.478Z,99.99
2019-04-07T02:05:20.898Z,99.99
2019-04-07T02:06:21.039Z,99.99
2019-04-07T02:07:20.387Z,99.99
2019-04-07T02:08:20.941Z,99.99
2019-04-07T02:09:20.363Z,99.99
2019-04-07T02:10:20.913Z,99.99
2019-04-07T02:11:21.129Z,99.99
2019-04-07T02:12:20.329Z,99.99
2019-04-07T02:13:20.732Z,99.99
2019-04-07T02:14:20.308Z,99.99
2019-04-07T02:15:20.296Z,99.99
2019-04-07T02:16:20.421Z,99.99
2019-04-07T02:17:20.852Z,99.99
2019-04-07T02:18:20.264Z,99.99
2019-04-07T02:19:20.475Z,99.99
2019-04-07T02:20:20.760Z,99.99
2019-04-07T02:21:20.717Z,99.99
2019-04-07T02:22:20.219Z,99.99
2019-04-07T02:23:20.729Z,99.99
2019-04-07T02:24:20.340Z,99.99
2019-04-07T02:25:20.740Z,99.99
2019-04-07T02:26:20.180Z,99.99
2019-04-07T02:27:20.560Z,99.99
2019-04-07T02:28:20.394Z,99.99
2019-04-07T02:29:20.397Z,99.99
2019-04-07T02:30:20.132Z,99.99
2019-04-07T02:31:21.121Z,99.99
2019-04-07T02:32:20.107Z,99.99
2019-04-07T02:33:20.098Z,99.99
2019-04-07T02:34:20.901Z,99.99
2019-04-07T02:35:20.888Z,99.99
2019-04-07T02:36:25.904Z,99.99
2019-04-07T02:37:20.600Z,99.99
2019-04-07T02:38:20.999Z,99.99
2019-04-07T02:39:20.033Z,99.99
2019-04-07T02:40:20.019Z,99.99
2019-04-07T02:41:20.010Z,99.99
2019-04-07T02:42:20.274Z,99.99
2019-04-07T02:43:19.987Z,99.99
2019-04-07T02:44:19.995Z,99.99
2019-04-07T02:45:19.964Z,99.99
2019-04-07T02:46:20.372Z,99.99
2019-04-07T02:47:20.039Z,99.99
2019-04-07T02:48:20.055Z,99.99
2019-04-07T02:49:20.038Z,99.99
2019-04-07T02:50:19.915Z,99.99
2019-04-07T02:51:20.192Z,99.99
2019-04-07T02:52:19.897Z,99.99
2019-04-07T02:53:19.877Z,99.99
2019-04-07T02:54:20.663Z,99.99
2019-04-07T02:55:19.855Z,99.99
2019-04-07T02:56:20.816Z,99.99
2019-04-07T02:57:20.643Z,99.99
2019-04-07T02:58:20.065Z,99.99
2019-04-07T02:59:19.920Z,99.99
2019-04-07T03:00:20.455Z,99.99
2019-04-07T03:01:20.125Z,99.99
2019-04-07T03:02:20.744Z,99.99
2019-04-07T03:03:20.108Z,99.99
2019-04-07T03:04:20.533Z,99.99
2019-04-07T03:05:19.886Z,99.99
2019-04-07T03:06:34.873Z,99.99
2019-04-07T03:07:20.055Z,99.99
2019-04-07T03:08:19.721Z,99.99
2019-04-07T03:09:20.479Z,99.99
2019-04-07T03:10:19.693Z,99.99
2019-04-07T03:11:20.018Z,99.99
2019-04-07T03:12:19.670Z,99.99
2019-04-07T03:13:19.658Z,99.99
2019-04-07T03:14:19.838Z,99.99
2019-04-07T03:15:19.636Z,99.99
2019-04-07T03:16:19.694Z,99.99
2019-04-07T03:17:20.145Z,99.99
2019-04-07T03:18:20.152Z,99.99
2019-04-07T03:19:19.594Z,99.99
2019-04-07T03:20:19.583Z,99.99
2019-04-07T03:21:19.826Z,99.99
2019-04-07T03:22:20.603Z,99.99
2019-04-07T03:23:20.411Z,99.99
2019-04-07T03:24:19.562Z,99.99
2019-04-07T03:25:20.587Z,99.99
2019-04-07T03:26:20.421Z,99.99
2019-04-07T03:27:19.506Z,99.99
2019-04-07T03:28:19.796Z,99.99
2019-04-07T03:29:20.254Z,99.99
2019-04-07T03:30:20.795Z,99.99
2019-04-07T03:31:21.835Z,99.99
2019-04-07T03:32:23.380Z,99.99
2019-04-07T03:33:22.773Z,99.99
2019-04-07T03:34:20.790Z,99.99
2019-04-07T03:35:22.804Z,99.99
2019-04-07T03:36:21.565Z,99.99
2019-04-07T03:37:33.128Z,99.99
2019-04-07T03:38:20.427Z,99.99
2019-04-07T03:39:20.347Z,99.99
2019-04-07T03:40:20.010Z,99.99
2019-04-07T03:41:19.652Z,99.99
2019-04-07T03:42:19.343Z,99.99
2019-04-07T03:43:19.703Z,99.99
2019-04-07T03:44:19.321Z,99.99
2019-04-07T03:45:20.319Z,99.99
2019-04-07T03:46:19.301Z,99.99
2019-04-07T03:47:20.111Z,99.99
2019-04-07T03:48:19.294Z,99.99
2019-04-07T03:49:20.052Z,99.99
2019-04-07T03:50:19.305Z,99.99
2019-04-07T03:51:20.163Z,99.99
2019-04-07T03:52:19.584Z,99.99
2019-04-07T03:53:20.108Z,99.99
2019-04-07T03:54:19.213Z,99.99
2019-04-07T03:55:20.377Z,99.99
2019-04-07T03:56:20.120Z,99.99
2019-04-07T03:57:19.670Z,99.99
2019-04-07T03:58:19.564Z,99.99
2019-04-07T03:59:20.033Z,99.99
2019-04-07T04:00:19.143Z,99.99
2019-04-07T04:01:19.133Z,99.99
2019-04-07T04:02:19.675Z,99.99
2019-04-07T04:03:19.368Z,99.99
2019-04-07T04:04:19.132Z,99.99
2019-04-07T04:05:19.103Z,99.99
2019-04-07T04:06:19.400Z,99.99
2019-04-07T04:07:29.351Z,99.99
2019-04-07T04:08:19.053Z,99.99
2019-04-07T04:09:19.042Z,99.99
2019-04-07T04:10:19.340Z,99.99
2019-04-07T04:11:19.021Z,99.99
2019-04-07T04:12:19.010Z,99.99
2019-04-07T04:13:19.998Z,99.99
2019-04-07T04:14:18.986Z,99.99
2019-04-07T04:15:18.975Z,99.99
2019-04-07T04:16:19.949Z,99.99
2019-04-07T04:17:19.430Z,99.99
2019-04-07T04:18:18.942Z,99.99
2019-04-07T04:19:18.949Z,99.99
2019-04-07T04:20:19.734Z,99.99
2019-04-07T04:21:19.786Z,99.99
2019-04-07T04:22:18.896Z,99.99
2019-04-07T04:23:19.768Z,99.99
2019-04-07T04:24:19.879Z,99.99
2019-04-07T04:25:19.170Z,99.99
2019-04-07T04:26:18.852Z,99.99
2019-04-07T04:27:18.877Z,99.99
2019-04-07T04:28:19.371Z,99.99
2019-04-07T04:29:18.931Z,99.99
2019-04-07T04:30:19.004Z,99.99
2019-04-07T04:31:19.585Z,99.99
2019-04-07T04:32:18.967Z,99.99
2019-04-07T04:33:18.769Z,99.99
2019-04-07T04:34:19.172Z,99.99
2019-04-07T04:35:18.998Z,99.99
2019-04-07T04:36:18.926Z,99.99
2019-04-07T04:37:34.561Z,99.99
2019-04-07T04:38:18.713Z,99.99
2019-04-07T04:39:20.935Z,99.99
2019-04-07T04:40:19.113Z,99.99
2019-04-07T04:41:18.961Z,99.99
2019-04-07T04:42:18.679Z,99.99
2019-04-07T04:43:18.666Z,99.99
2019-04-07T04:44:18.786Z,99.99
2019-04-07T04:45:18.638Z,99.99
2019-04-07T04:46:18.726Z,99.99
2019-04-07T04:47:19.105Z,99.99
2019-04-07T04:48:19.653Z,99.99
2019-04-07T04:49:19.021Z,99.99
2019-04-07T04:50:18.584Z,99.99
2019-04-07T04:51:18.566Z,99.99
2019-04-07T04:52:18.581Z,99.99
2019-04-07T04:53:18.616Z,99.99
2019-04-07T04:54:19.303Z,99.99
2019-04-07T04:55:18.901Z,99.99
2019-04-07T04:56:18.698Z,99.99
2019-04-07T04:57:18.495Z,99.99
2019-04-07T04:58:19.311Z,99.99
2019-04-07T04:59:18.472Z,99.99
2019-04-07T05:00:18.764Z,99.99
2019-04-07T05:01:18.724Z,99.99
2019-04-07T05:02:18.960Z,99.99
2019-04-07T05:03:19.391Z,99.99
2019-04-07T05:04:18.422Z,99.99
2019-04-07T05:05:18.403Z,99.99
2019-04-07T05:06:18.392Z,99.99
2019-04-07T05:07:19.019Z,99.99
2019-04-07T05:08:18.382Z,99.99
2019-04-07T05:09:18.357Z,99.99
2019-04-07T05:10:19.249Z,99.99
2019-04-07T05:11:18.875Z,99.99
2019-04-07T05:12:18.337Z,99.99
2019-04-07T05:13:18.312Z,99.99
2019-04-07T05:14:18.301Z,99.99
2019-04-07T05:15:18.288Z,99.99
2019-04-07T05:16:18.500Z,99.99
2019-04-07T05:17:18.269Z,99.99
2019-04-07T05:18:18.256Z,99.99
2019-04-07T05:19:18.257Z,99.99
2019-04-07T05:20:18.358Z,99.99
2019-04-07T05:21:18.579Z,99.99
2019-04-07T05:22:18.212Z,99.99
2019-04-07T05:23:18.224Z,99.99
2019-04-07T05:24:18.189Z,99.99
2019-04-07T05:25:18.446Z,99.99
2019-04-07T05:26:18.167Z,99.99
2019-04-07T05:27:18.619Z,99.99
2019-04-07T05:28:18.144Z,99.99
2019-04-07T05:29:18.675Z,99.99
2019-04-07T05:30:18.121Z,99.99
2019-04-07T05:31:18.720Z,99.99
2019-04-07T05:32:18.099Z,99.99
2019-04-07T05:33:18.089Z,99.99
2019-04-07T05:34:20.507Z,99.99
2019-04-07T05:35:18.738Z,99.99
2019-04-07T05:36:18.054Z,99.99
2019-04-07T05:37:18.769Z,99.99
2019-04-07T05:38:18.031Z,99.99
2019-04-07T05:39:18.022Z,99.99
2019-04-07T05:40:18.010Z,99.99
2019-04-07T05:41:18.365Z,99.99
2019-04-07T05:42:17.987Z,99.99
2019-04-07T05:43:18.488Z,99.99
2019-04-07T05:44:17.964Z,99.99
2019-04-07T05:45:17.953Z,99.99
2019-04-07T05:46:17.943Z,99.99
2019-04-07T05:47:17.933Z,99.99
2019-04-07T05:48:20.229Z,99.99
2019-04-07T05:49:18.752Z,99.99
2019-04-07T05:50:17.898Z,99.99
2019-04-07T05:51:17.890Z,99.99
2019-04-07T05:52:18.116Z,99.99
2019-04-07T05:53:17.866Z,99.99
2019-04-07T05:54:19.760Z,99.99
2019-04-07T05:55:20.605Z,99.99
2019-04-07T05:56:17.832Z,99.99
2019-04-07T05:57:18.556Z,99.99
2019-04-07T05:58:18.037Z,99.99
2019-04-07T05:59:17.802Z,99.99
2019-04-07T06:00:18.709Z,99.99
2019-04-07T06:01:21.712Z,99.99
2019-04-07T06:02:17.902Z,99.99
2019-04-07T06:03:17.788Z,99.99
2019-04-07T06:04:19.177Z,99.99
2019-04-07T06:05:18.612Z,99.99
2019-04-07T06:06:19.148Z,99.99
2019-04-07T06:07:17.713Z,99.99
2019-04-07T06:08:26.864Z,99.99
2019-04-07T06:09:18.918Z,99.99
2019-04-07T06:10:18.329Z,99.99
2019-04-07T06:11:17.669Z,99.99
2019-04-07T06:12:17.659Z,99.99
2019-04-07T06:13:17.685Z,99.99
2019-04-07T06:14:17.638Z,99.99
2019-04-07T06:15:21.604Z,99.99
2019-04-07T06:16:19.953Z,99.99
2019-04-07T06:17:17.622Z,99.99
2019-04-07T06:18:17.595Z,99.99
2019-04-07T06:19:18.227Z,99.99
2019-04-07T06:20:18.042Z,99.99
2019-04-07T06:21:17.565Z,99.99
2019-04-07T06:22:19.830Z,99.99
2019-04-07T06:23:17.767Z,99.99
2019-04-07T06:24:18.379Z,99.99
2019-04-07T06:25:17.523Z,99.99
2019-04-07T06:26:17.633Z,99.99
2019-04-07T06:27:18.122Z,99.99
2019-04-07T06:28:19.121Z,99.99
2019-04-07T06:29:18.247Z,99.99
2019-04-07T06:30:17.610Z,99.99
2019-04-07T06:31:17.463Z,99.99
2019-04-07T06:32:17.772Z,99.99
2019-04-07T06:33:17.539Z,99.99
2019-04-07T06:34:17.432Z,99.99
2019-04-07T06:35:18.174Z,99.99
2019-04-07T06:36:18.760Z,99.99
2019-04-07T06:37:17.795Z,99.99
2019-04-07T06:38:17.723Z,99.99
2019-04-07T06:39:19.237Z,99.65
2019-04-07T06:40:20.315Z,99.74
2019-04-07T06:41:17.446Z,99.27
2019-04-07T06:42:17.600Z,99.32
2019-04-07T06:43:18.633Z,99.69
2019-04-07T06:44:21.118Z,99.13
2019-04-07T06:45:20.575Z,99.98
2019-04-07T06:46:17.504Z,99.22
2019-04-07T06:47:17.970Z,98.55
2019-04-07T06:48:17.554Z,98.36
2019-04-07T06:49:17.291Z,98.74
2019-04-07T06:50:17.932Z,98.94
2019-04-07T06:51:17.392Z,99.03
2019-04-07T06:52:17.278Z,99.32
2019-04-07T06:53:19.952Z,99.03
2019-04-07T06:54:21.025Z,99.03
2019-04-07T06:55:17.895Z,98.79
2019-04-07T06:56:17.558Z,98.79
2019-04-07T06:57:17.436Z,98.51
2019-04-07T06:58:17.541Z,98.65
2019-04-07T06:59:17.679Z,99.37
2019-04-07T07:00:21.515Z,98.89
2019-04-07T07:01:17.174Z,98.13
2019-04-07T07:02:17.478Z,97.56
2019-04-07T07:03:17.155Z,97.17
2019-04-07T07:04:17.872Z,97.36
2019-04-07T07:05:17.810Z,96.98
2019-04-07T07:06:18.390Z,97.36
2019-04-07T07:07:18.947Z,96.51
2019-04-07T07:08:21.611Z,96.70
2019-04-07T07:09:17.103Z,96.56
2019-04-07T07:10:26.134Z,96.17
2019-04-07T07:11:27.575Z,95.89
2019-04-07T07:12:22.644Z,95.41
2019-04-07T07:13:28.398Z,95.32
2019-04-07T07:14:31.208Z,95.32
2019-04-07T07:15:17.050Z,95.41
2019-04-07T07:16:17.449Z,95.03
2019-04-07T07:17:19.507Z,95.12
2019-04-07T07:18:20.001Z,95.03
2019-04-07T07:19:17.016Z,94.03
2019-04-07T07:20:17.648Z,94.22
2019-04-07T07:21:16.999Z,93.55
2019-04-07T07:22:17.503Z,92.32
2019-04-07T07:23:17.009Z,92.79
2019-04-07T07:24:22.495Z,92.93
2019-04-07T07:25:17.063Z,93.22
2019-04-07T07:26:17.188Z,92.36
2019-04-07T07:27:17.570Z,91.60
2019-04-07T07:28:17.338Z,89.35
2019-04-07T07:29:18.038Z,88.11
2019-04-07T07:30:18.370Z,88.20
2019-04-07T07:31:18.150Z,87.77
2019-04-07T07:32:17.017Z,87.01
2019-04-07T07:33:16.914Z,87.10
2019-04-07T07:34:17.662Z,87.05
2019-04-07T07:35:16.910Z,86.96
2019-04-07T07:36:18.355Z,86.00
2019-04-07T07:37:16.900Z,86.14
2019-04-07T07:38:16.894Z,85.75
2019-04-07T07:39:17.606Z,85.57
2019-04-07T07:40:18.344Z,85.03
2019-04-07T07:41:19.193Z,83.60
2019-04-07T07:42:19.102Z,83.22
2019-04-07T07:43:17.494Z,82.40
2019-04-07T07:44:17.578Z,80.96
2019-04-07T07:45:17.494Z,79.81
2019-04-07T07:46:20.597Z,80.33
2019-04-07T07:47:17.655Z,78.51
2019-04-07T07:48:17.484Z,78.61
2019-04-07T07:49:16.873Z,78.80
2019-04-07T07:50:16.871Z,79.75
2019-04-07T07:51:16.870Z,79.37
2019-04-07T07:52:19.666Z,78.32
2019-04-07T07:53:16.933Z,78.61
2019-04-07T07:54:17.294Z,78.55
2019-04-07T07:55:17.269Z,77.78
2019-04-07T07:56:17.023Z,77.88
2019-04-07T07:57:21.021Z,76.96
2019-04-07T07:58:16.871Z,76.86
2019-04-07T07:59:17.749Z,76.48
2019-04-07T08:00:17.003Z,74.79
2019-04-07T08:01:17.750Z,74.22
2019-04-07T08:02:19.454Z,73.26
2019-04-07T08:03:18.921Z,74.16
2019-04-07T08:04:17.375Z,73.49
2019-04-07T08:05:17.153Z,72.14
2019-04-07T08:06:17.335Z,73.49
2019-04-07T08:07:16.892Z,73.62
2019-04-07T08:08:16.887Z,73.62
2019-04-07T08:09:21.441Z,71.31
2019-04-07T08:10:17.096Z,67.57
2019-04-07T08:11:17.643Z,66.23
2019-04-07T08:12:17.353Z,64.79
2019-04-07T08:13:16.942Z,64.79
2019-04-07T08:14:18.335Z,65.75
2019-04-07T08:15:17.056Z,65.27
2019-04-07T08:16:17.399Z,65.75
2019-04-07T08:17:17.288Z,65.11
2019-04-07T08:18:19.570Z,64.92
2019-04-07T08:19:16.918Z,64.92
2019-04-07T08:20:17.477Z,63.79
2019-04-07T08:21:19.099Z,66.58
2019-04-07T08:22:27.553Z,65.33
2019-04-07T08:23:16.930Z,62.96
2019-04-07T08:24:17.667Z,61.20
2019-04-07T08:25:20.385Z,60.34
2019-04-07T08:26:16.942Z,61.36
2019-04-07T08:27:16.944Z,62.99
2019-04-07T08:28:19.565Z,61.84
2019-04-07T08:29:17.008Z,61.14
2019-04-07T08:30:17.384Z,62.77
2019-04-07T08:31:20.538Z,63.48
2019-04-07T08:32:17.637Z,62.04
2019-04-07T08:33:16.963Z,62.87
2019-04-07T08:34:17.818Z,62.61
2019-04-07T08:35:17.622Z,62.71
2019-04-07T08:36:17.217Z,62.13
2019-04-07T08:37:17.873Z,61.36
2019-04-07T08:38:19.954Z,61.65
2019-04-07T08:39:23.765Z,62.16
2019-04-07T08:40:16.985Z,61.49
2019-04-07T08:41:16.998Z,60.56
2019-04-07T08:42:18.698Z,59.79
2019-04-07T08:43:20.055Z,60.27
2019-04-07T08:44:17.160Z,60.94
2019-04-07T08:45:17.889Z,60.27
2019-04-07T08:46:17.010Z,60.30
2019-04-07T08:47:21.796Z,59.15
2019-04-07T08:48:19.321Z,58.86
2019-04-07T08:49:17.035Z,58.28
2019-04-07T08:50:17.028Z,57.90
2019-04-07T08:51:17.033Z,57.99
2019-04-07T08:52:17.440Z,58.37
2019-04-07T08:53:17.046Z,58.89
2019-04-07T08:54:18.453Z,58.12
2019-04-07T08:55:20.039Z,57.35
2019-04-07T08:56:17.819Z,57.54
2019-04-07T08:57:17.065Z,56.10
2019-04-07T08:58:24.999Z,56.38
2019-04-07T08:59:17.309Z,57.73
2019-04-07T09:00:17.538Z,56.41
2019-04-07T09:01:20.301Z,57.92
2019-04-07T09:02:18.967Z,56.48
2019-04-07T09:03:17.205Z,56.77
2019-04-07T09:04:17.853Z,56.96
2019-04-07T09:05:20.250Z,57.92
2019-04-07T09:06:17.338Z,57.45
2019-04-07T09:07:17.533Z,57.57
2019-04-07T09:08:17.929Z,56.10
2019-04-07T09:09:17.136Z,55.90
2019-04-07T09:10:20.428Z,58.05
2019-04-07T09:11:19.996Z,56.90
2019-04-07T09:12:17.506Z,55.35
2019-04-07T09:13:17.474Z,55.16
2019-04-07T09:14:17.623Z,55.35
2019-04-07T09:15:17.820Z,55.87
2019-04-07T09:16:17.753Z,54.80
2019-04-07T09:17:29.319Z,56.35
2019-04-07T09:18:18.072Z,55.87
2019-04-07T09:19:17.200Z,54.22
2019-04-07T09:20:17.926Z,53.84
2019-04-07T09:21:19.948Z,53.65
2019-04-07T09:22:20.075Z,54.22
2019-04-07T09:23:17.581Z,55.38
2019-04-07T09:24:17.699Z,55.89
2019-04-07T09:25:17.241Z,53.58
2019-04-07T09:26:19.922Z,51.14
2019-04-07T09:27:20.974Z,53.45
2019-04-07T09:28:19.944Z,53.53
2019-04-07T09:29:17.302Z,52.66
2019-04-07T09:30:17.275Z,54.39
2019-04-07T09:31:17.590Z,54.13
2019-04-07T09:32:17.841Z,55.19
2019-04-07T09:33:18.073Z,53.65
2019-04-07T09:34:20.081Z,53.17
2019-04-07T09:35:17.731Z,53.27
2019-04-07T09:36:17.995Z,53.36
2019-04-07T09:37:18.488Z,54.90
2019-04-07T09:38:17.716Z,52.33
2019-04-07T09:39:17.652Z,50.85
2019-04-07T09:40:17.802Z,53.33
2019-04-07T09:41:21.665Z,54.78
2019-04-07T09:42:18.609Z,53.94
2019-04-07T09:43:18.910Z,52.69
2019-04-07T09:44:17.408Z,52.66
2019-04-07T09:45:17.459Z,53.84
2019-04-07T09:46:18.003Z,54.90
2019-04-07T09:47:17.904Z,55.09
2019-04-07T09:48:19.878Z,54.44
2019-04-07T09:49:17.399Z,53.48
2019-04-07T09:50:17.477Z,53.29
2019-04-07T09:51:17.687Z,52.45
2019-04-07T09:52:17.855Z,51.87
2019-04-07T09:53:18.895Z,51.17
2019-04-07T09:54:20.648Z,51.87
2019-04-07T09:55:17.854Z,52.16
2019-04-07T09:56:17.448Z,50.62
2019-04-07T09:57:17.989Z,51.68
2019-04-07T09:58:18.202Z,52.83
2019-04-07T09:59:19.249Z,50.90
2019-04-07T10:00:17.479Z,51.00
2019-04-07T10:01:20.017Z,51.87
2019-04-07T10:02:17.494Z,51.22
2019-04-07T10:03:18.122Z,49.84
2019-04-07T10:04:17.510Z,51.00
2019-04-07T10:05:17.518Z,51.20
2019-04-07T10:06:17.526Z,51.41
2019-04-07T10:07:18.308Z,50.26
2019-04-07T10:08:18.937Z,49.68
2019-04-07T10:09:18.306Z,48.30
2019-04-07T10:10:17.558Z,50.49
2019-04-07T10:11:17.565Z,52.73
2019-04-07T10:12:18.437Z,53.80
2019-04-07T10:13:17.837Z,52.06
2019-04-07T10:14:18.416Z,51.39
2019-04-07T10:15:17.749Z,52.16
2019-04-07T10:16:17.605Z,51.12
2019-04-07T10:17:17.760Z,50.93
2019-04-07T10:18:17.922Z,50.16
2019-04-07T10:19:18.021Z,48.90
2019-04-07T10:20:17.962Z,49.39
2019-04-07T10:21:18.317Z,51.15
2019-04-07T10:22:17.656Z,50.35
2019-04-07T10:23:17.689Z,49.12
2019-04-07T10:24:18.490Z,50.38
2019-04-07T10:25:17.682Z,49.41
2019-04-07T10:26:17.934Z,49.60
2019-04-07T10:27:18.707Z,50.96
2019-04-07T10:28:17.781Z,51.27
2019-04-07T10:29:17.734Z,48.66
2019-04-07T10:30:17.727Z,47.60
2019-04-07T10:31:19.770Z,48.06
2019-04-07T10:32:17.900Z,49.82
2019-04-07T10:33:17.993Z,47.02
2019-04-07T10:34:18.246Z,47.41
2019-04-07T10:35:17.934Z,48.37
2019-04-07T10:36:17.780Z,48.28
2019-04-07T10:37:17.789Z,48.47
2019-04-07T10:38:17.799Z,50.04
2019-04-07T10:39:18.622Z,45.86
2019-04-07T10:40:21.824Z,46.71
2019-04-07T10:41:18.379Z,46.51
2019-04-07T10:42:18.060Z,46.51
2019-04-07T10:43:18.489Z,47.36
2019-04-07T10:44:17.925Z,49.00
2019-04-07T10:45:17.860Z,50.38
2019-04-07T10:46:17.962Z,48.06
2019-04-07T10:47:18.380Z,47.89
2019-04-07T10:48:17.991Z,45.45
2019-04-07T10:49:17.895Z,48.44
2019-04-07T10:50:17.997Z,49.90
2019-04-07T10:51:18.456Z,48.54
2019-04-07T10:52:18.021Z,47.80
2019-04-07T10:53:17.929Z,48.47
2019-04-07T10:54:17.938Z,46.54
2019-04-07T10:55:17.946Z,43.04
2019-04-07T10:56:18.741Z,43.72
2019-04-07T10:57:18.816Z,45.03
2019-04-07T10:58:18.002Z,47.14
2019-04-07T10:59:17.994Z,49.39
2019-04-07T11:00:17.988Z,47.45
2019-04-07T11:01:17.996Z,47.75
2019-04-07T11:02:18.145Z,46.30
2019-04-07T11:03:18.610Z,48.23
2019-04-07T11:04:18.020Z,46.01
2019-04-07T11:05:18.578Z,47.87
2019-04-07T11:06:18.142Z,46.61
2019-04-07T11:07:18.777Z,46.81
2019-04-07T11:08:18.250Z,46.33
2019-04-07T11:09:18.168Z,46.90
2019-04-07T11:10:29.866Z,49.15
2019-04-07T11:11:18.100Z,47.02
2019-04-07T11:12:18.082Z,45.57
2019-04-07T11:13:18.580Z,45.00
2019-04-07T11:14:18.500Z,46.03
2019-04-07T11:15:18.466Z,44.78
2019-04-07T11:16:18.566Z,47.19
2019-04-07T11:17:18.121Z,45.65
2019-04-07T11:18:19.064Z,45.94
2019-04-07T11:19:18.138Z,47.58
2019-04-07T11:20:18.145Z,48.16
2019-04-07T11:21:18.176Z,47.89
2019-04-07T11:22:18.775Z,47.80
2019-04-07T11:23:18.168Z,45.76
2019-04-07T11:24:18.748Z,44.87
2019-04-07T11:25:18.362Z,46.51
2019-04-07T11:26:18.195Z,45.36
2019-04-07T11:27:19.049Z,45.04
2019-04-07T11:28:18.207Z,46.56
2019-04-07T11:29:18.218Z,48.13
2019-04-07T11:30:18.370Z,46.37
2019-04-07T11:31:18.850Z,47.94
2019-04-07T11:32:18.236Z,47.48
2019-04-07T11:33:18.336Z,48.16
2019-04-07T11:34:18.250Z,45.36
2019-04-07T11:35:18.258Z,44.49
2019-04-07T11:36:21.278Z,45.65
2019-04-07T11:37:18.935Z,44.87
2019-04-07T11:38:19.116Z,46.33
2019-04-07T11:39:18.936Z,44.78
2019-04-07T11:40:18.292Z,45.26
2019-04-07T11:41:21.536Z,45.18
2019-04-07T11:42:18.475Z,46.34
2019-04-07T11:43:18.315Z,45.79
2019-04-07T11:44:20.180Z,45.59
2019-04-07T11:45:18.333Z,43.95
2019-04-07T11:46:18.827Z,42.89
2019-04-07T11:47:18.577Z,44.90
2019-04-07T11:48:18.350Z,45.11
2019-04-07T11:49:19.398Z,44.92
2019-04-07T11:50:18.914Z,43.57
2019-04-07T11:51:18.522Z,43.66
2019-04-07T11:52:18.379Z,41.61
2019-04-07T11:53:18.386Z,45.09
2019-04-07T11:54:18.393Z,46.34
2019-04-07T11:55:18.494Z,42.94
2019-04-07T11:56:18.407Z,44.01
2019-04-07T11:57:18.414Z,44.87
2019-04-07T11:58:25.976Z,43.04
2019-04-07T11:59:18.441Z,43.43
2019-04-07T12:00:18.469Z,43.14
2019-04-07T12:01:18.770Z,43.72
2019-04-07T12:02:19.789Z,43.52
2019-04-07T12:03:19.194Z,44.29
2019-04-07T12:04:18.578Z,43.74
2019-04-07T12:05:18.467Z,42.87
2019-04-07T12:06:19.180Z,42.36
2019-04-07T12:07:20.376Z,43.33
2019-04-07T12:08:18.550Z,43.41
2019-04-07T12:09:18.488Z,43.77
2019-04-07T12:10:18.494Z,45.53
2019-04-07T12:11:18.498Z,44.73
2019-04-07T12:12:18.504Z,45.82
2019-04-07T12:13:18.509Z,46.03
2019-04-07T12:14:19.169Z,46.15
2019-04-07T12:15:22.041Z,42.79
2019-04-07T12:16:18.591Z,42.82
2019-04-07T12:17:18.819Z,43.01
2019-04-07T12:18:19.256Z,42.24
2019-04-07T12:19:22.790Z,40.98
2019-04-07T12:20:18.548Z,39.82
2019-04-07T12:21:22.618Z,42.31
2019-04-07T12:22:18.554Z,40.86
2019-04-07T12:23:23.385Z,42.41
2019-04-07T12:24:18.947Z,41.94
2019-04-07T12:25:18.982Z,40.90
2019-04-07T12:26:18.926Z,39.74
2019-04-07T12:27:21.211Z,39.43
2019-04-07T12:28:19.445Z,41.58
2019-04-07T12:29:18.857Z,41.41
2019-04-07T12:30:21.399Z,40.05
2019-04-07T12:31:18.619Z,40.56
2019-04-07T12:32:19.123Z,40.26
2019-04-07T12:33:19.056Z,40.00
2019-04-07T12:34:18.982Z,39.03
2019-04-07T12:35:19.496Z,38.83
2019-04-07T12:36:18.624Z,37.05
2019-04-07T12:37:18.833Z,38.39
2019-04-07T12:38:19.391Z,37.79
2019-04-07T12:39:19.031Z,40.38
2019-04-07T12:40:22.460Z,41.25
2019-04-07T12:41:21.730Z,40.57
2019-04-07T12:42:18.654Z,39.12
2019-04-07T12:43:18.655Z,39.51
2019-04-07T12:44:19.108Z,40.38
2019-04-07T12:45:19.095Z,39.70
2019-04-07T12:46:19.416Z,40.28
2019-04-07T12:47:19.209Z,39.39
2019-04-07T12:48:19.500Z,40.69
2019-04-07T12:49:18.919Z,41.39
2019-04-07T12:50:19.723Z,39.57
2019-04-07T12:51:19.870Z,37.54
2019-04-07T12:52:18.768Z,38.12